createdAt,value
2022-09-28T00:01:54.269Z,97.58
2022-09-28T00:04:22.736Z,97.32
2022-09-28T00:06:51.117Z,96.99
2022-09-28T00:09:19.496Z,97.21
2022-09-28T00:11:47.980Z,97.87
2022-09-28T00:14:16.364Z,98.10
2022-09-28T00:16:44.867Z,98.29
2022-09-28T00:19:14.027Z,98.35
2022-09-28T00:21:42.724Z,97.78
2022-09-28T00:24:21.991Z,98.36
2022-09-28T00:26:54.537Z,97.91
2022-09-28T00:29:27.424Z,98.77
2022-09-28T00:32:05.842Z,98.47
2022-09-28T00:34:36.309Z,98.66
2022-09-28T00:37:05.984Z,98.45
2022-09-28T00:39:36.098Z,98.25
2022-09-28T00:42:11.338Z,98.63
2022-09-28T00:44:41.648Z,98.75
2022-09-28T00:47:10.301Z,98.11
2022-09-28T00:49:43.644Z,97.90
2022-09-28T00:52:15.198Z,98.15
2022-09-28T00:54:45.525Z,98.19
2022-09-28T00:57:14.622Z,98.20
2022-09-28T00:59:43.513Z,98.81
2022-09-28T01:02:12.434Z,98.47
2022-09-28T01:04:40.990Z,98.70
2022-09-28T01:07:09.551Z,98.53
2022-09-28T01:09:39.445Z,98.04
2022-09-28T01:12:08.385Z,98.37
2022-09-28T01:14:36.864Z,98.44
2022-09-28T01:17:14.356Z,97.97
2022-09-28T01:19:45.609Z,98.41
2022-09-28T01:22:33.338Z,98.81
2022-09-28T01:25:01.730Z,98.19
2022-09-28T01:27:36.652Z,98.01
2022-09-28T01:30:09.331Z,98.90
2022-09-28T01:32:41.367Z,98.97
2022-09-28T01:35:28.755Z,99.33
2022-09-28T01:38:06.214Z,99.13
2022-09-28T01:40:35.546Z,99.19
2022-09-28T01:43:06.557Z,98.98
2022-09-28T01:45:46.106Z,98.48
2022-09-28T01:48:17.830Z,98.71
2022-09-28T01:50:48.901Z,99.10
2022-09-28T01:53:21.173Z,99.23
2022-09-28T01:55:52.992Z,99.08
2022-09-28T01:58:24.795Z,98.30
2022-09-28T02:00:56.708Z,98.49
2022-09-28T02:03:30.051Z,98.28
2022-09-28T02:06:05.834Z,98.35
2022-09-28T02:08:37.450Z,98.60
2022-09-28T02:11:13.131Z,98.26
2022-09-28T02:13:54.393Z,98.67
2022-09-28T02:16:31.733Z,98.62
2022-09-28T02:19:00.767Z,99.22
2022-09-28T02:21:34.379Z,99.86
2022-09-28T02:24:20.658Z,99.90
2022-09-28T02:26:52.646Z,100.00
2022-09-28T02:29:21.229Z,100.00
2022-09-28T02:31:50.748Z,100.00
2022-09-28T02:34:19.323Z,100.00
2022-09-28T02:36:48.519Z,100.00
2022-09-28T02:39:18.297Z,100.00
2022-09-28T02:41:59.512Z,100.00
2022-09-28T02:44:33.933Z,100.00
2022-09-28T02:47:05.775Z,100.00
2022-09-28T02:49:37.450Z,100.00
2022-09-28T02:52:09.027Z,100.00
2022-09-28T02:54:56.021Z,100.00
2022-09-28T02:57:25.037Z,100.00
2022-09-28T03:00:01.280Z,100.00
2022-09-28T03:02:37.755Z,100.00
2022-09-28T03:05:25.893Z,100.00
2022-09-28T03:07:54.352Z,100.00
2022-09-28T03:10:46.956Z,100.00
2022-09-28T03:13:17.350Z,99.91
2022-09-28T03:15:48.812Z,99.92
2022-09-28T03:18:22.199Z,99.99
2022-09-28T03:20:51.069Z,100.00
2022-09-28T03:23:24.826Z,100.00
2022-09-28T03:25:54.938Z,100.00
2022-09-28T03:28:23.706Z,100.00
2022-09-28T03:30:52.085Z,100.00
2022-09-28T03:33:21.282Z,100.00
2022-09-28T03:35:50.702Z,100.00
2022-09-28T03:38:19.578Z,100.00
2022-09-28T03:40:58.546Z,100.00
2022-09-28T03:43:27.395Z,100.00
2022-09-28T03:45:57.862Z,100.00
2022-09-28T03:48:32.669Z,100.00
2022-09-28T03:51:03.227Z,100.00
2022-09-28T03:53:33.026Z,100.00
2022-09-28T03:56:04.145Z,100.00
2022-09-28T03:58:32.812Z,100.00
2022-09-28T04:01:02.751Z,100.00
2022-09-28T04:03:31.848Z,100.00
2022-09-28T04:06:00.742Z,100.00
2022-09-28T04:08:29.631Z,100.00
2022-09-28T04:10:58.825Z,100.00
2022-09-28T04:13:28.333Z,100.00
2022-09-28T04:15:57.862Z,100.00
2022-09-28T04:18:27.040Z,100.00
2022-09-28T04:21:09.114Z,100.00
2022-09-28T04:23:44.357Z,100.00
2022-09-28T04:26:17.058Z,100.00
2022-09-28T04:29:06.739Z,100.00
2022-09-28T04:31:52.392Z,100.00
2022-09-28T04:34:23.158Z,100.00
2022-09-28T04:36:51.644Z,100.00
2022-09-28T04:39:20.739Z,100.00
2022-09-28T04:41:52.598Z,100.00
2022-09-28T04:44:20.880Z,100.00
2022-09-28T04:46:51.202Z,100.00
2022-09-28T04:49:42.351Z,100.00
2022-09-28T04:52:18.218Z,100.00
2022-09-28T04:54:50.055Z,100.00
2022-09-28T04:57:20.862Z,100.00
2022-09-28T04:59:49.160Z,100.00
2022-09-28T05:02:18.210Z,100.00
2022-09-28T05:05:25.229Z,100.00
2022-09-28T05:08:16.962Z,99.90
2022-09-28T05:10:46.154Z,99.61
2022-09-28T05:13:14.634Z,99.63
2022-09-28T05:15:43.323Z,99.22
2022-09-28T05:18:12.007Z,98.81
2022-09-28T05:20:49.510Z,98.27
2022-09-28T05:23:18.495Z,97.96
2022-09-28T05:25:47.492Z,97.32
2022-09-28T05:28:30.206Z,97.30
2022-09-28T05:31:17.623Z,96.91
2022-09-28T05:34:04.653Z,96.35
2022-09-28T05:36:33.446Z,95.59
2022-09-28T05:39:03.891Z,94.89
2022-09-28T05:41:32.514Z,94.85
2022-09-28T05:44:02.193Z,94.13
2022-09-28T05:46:31.464Z,94.19
2022-09-28T05:49:03.715Z,93.72
2022-09-28T05:51:32.114Z,92.49
2022-09-28T05:54:05.449Z,92.67
2022-09-28T05:56:35.641Z,91.66
2022-09-28T05:59:06.504Z,91.63
2022-09-28T06:01:34.907Z,90.69
2022-09-28T06:04:04.767Z,90.96
2022-09-28T06:06:34.794Z,89.73
2022-09-28T06:09:03.070Z,89.35
2022-09-28T06:12:04.314Z,88.92
2022-09-28T06:14:49.798Z,87.78
2022-09-28T06:17:18.586Z,87.61
2022-09-28T06:19:53.518Z,87.81
2022-09-28T06:22:35.471Z,87.13
2022-09-28T06:25:09.627Z,85.96
2022-09-28T06:27:42.801Z,85.26
2022-09-28T06:30:11.922Z,85.17
2022-09-28T06:32:42.387Z,83.75
2022-09-28T06:35:11.243Z,83.41
2022-09-28T06:37:39.947Z,84.07
2022-09-28T06:40:08.955Z,83.12
2022-09-28T06:42:37.818Z,81.64
2022-09-28T06:45:25.725Z,83.20
2022-09-28T06:48:10.772Z,81.80
2022-09-28T06:50:43.709Z,80.50
2022-09-28T06:53:30.732Z,79.52
2022-09-28T06:56:21.432Z,80.37
2022-09-28T06:58:50.019Z,81.14
2022-09-28T07:01:18.872Z,79.44
2022-09-28T07:04:03.673Z,77.40
2022-09-28T07:06:50.855Z,78.04
2022-09-28T07:09:42.207Z,77.38
2022-09-28T07:12:34.968Z,76.59
2022-09-28T07:15:06.400Z,75.96
2022-09-28T07:17:44.211Z,76.00
2022-09-28T07:20:20.503Z,75.74
2022-09-28T07:23:03.147Z,75.96
2022-09-28T07:25:58.572Z,74.65
2022-09-28T07:28:47.270Z,73.83
2022-09-28T07:31:35.719Z,74.36
2022-09-28T07:34:17.732Z,73.93
2022-09-28T07:37:00.243Z,74.38
2022-09-28T07:39:29.430Z,72.98
2022-09-28T07:42:02.516Z,72.89
2022-09-28T07:44:32.641Z,72.52
2022-09-28T07:47:02.803Z,71.89
2022-09-28T07:49:53.057Z,71.25
2022-09-28T07:52:42.759Z,70.80
2022-09-28T07:55:20.127Z,71.30
2022-09-28T07:58:01.308Z,69.30
2022-09-28T08:00:52.856Z,70.61
2022-09-28T08:03:24.372Z,69.60
2022-09-28T08:06:00.729Z,68.51
2022-09-28T08:08:30.362Z,68.69
2022-09-28T08:10:59.568Z,69.07
2022-09-28T08:13:55.760Z,67.82
2022-09-28T08:16:52.066Z,66.89
2022-09-28T08:20:13.861Z,66.25
2022-09-28T08:22:42.865Z,66.40
2022-09-28T08:25:11.542Z,67.55
2022-09-28T08:27:39.922Z,66.25
2022-09-28T08:30:09.020Z,65.86
2022-09-28T08:32:51.736Z,65.33
2022-09-28T08:35:40.415Z,65.80
2022-09-28T08:38:19.191Z,65.28
2022-09-28T08:41:25.165Z,64.13
2022-09-28T08:44:24.792Z,64.00
2022-09-28T08:47:39.048Z,64.58
2022-09-28T08:50:29.869Z,63.65
2022-09-28T08:53:18.425Z,62.64
2022-09-28T08:56:05.351Z,63.66
2022-09-28T08:58:36.466Z,62.97
2022-09-28T09:01:08.268Z,62.29
2022-09-28T09:03:39.720Z,61.38
2022-09-28T09:06:30.258Z,61.77
2022-09-28T09:09:23.953Z,60.18
2022-09-28T09:11:52.719Z,60.92
2022-09-28T09:14:29.707Z,60.09
2022-09-28T09:17:13.875Z,58.95
2022-09-28T09:20:26.183Z,59.01
2022-09-28T09:23:08.492Z,58.97
2022-09-28T09:25:48.958Z,58.25
2022-09-28T09:28:20.245Z,57.68
2022-09-28T09:31:08.078Z,57.77
2022-09-28T09:33:57.309Z,57.20
2022-09-28T09:36:47.605Z,56.95
2022-09-28T09:39:31.345Z,56.73
2022-09-28T09:42:31.984Z,56.94
2022-09-28T09:45:38.639Z,55.65
2022-09-28T09:48:51.074Z,55.11
2022-09-28T09:51:19.864Z,55.15
2022-09-28T09:54:00.491Z,53.92
2022-09-28T09:56:55.333Z,53.86
2022-09-28T10:00:01.087Z,54.25
2022-09-28T10:02:51.110Z,53.71
2022-09-28T10:05:37.040Z,54.39
2022-09-28T10:08:14.766Z,53.31
2022-09-28T10:10:54.925Z,53.15
2022-09-28T10:13:23.716Z,53.11
2022-09-28T10:15:55.884Z,51.94
2022-09-28T10:18:28.569Z,51.98
2022-09-28T10:21:29.510Z,51.20
2022-09-28T10:24:07.749Z,49.59
2022-09-28T10:26:39.887Z,49.91
2022-09-28T10:29:23.172Z,50.49
2022-09-28T10:31:52.805Z,50.26
2022-09-28T10:34:30.544Z,49.29
2022-09-28T10:37:10.374Z,48.51
2022-09-28T10:40:01.798Z,48.22
2022-09-28T10:42:34.478Z,48.05
2022-09-28T10:45:23.647Z,47.18
2022-09-28T10:47:52.640Z,47.00
2022-09-28T10:50:25.671Z,47.07
2022-09-28T10:53:21.247Z,47.90
2022-09-28T10:56:18.398Z,47.57
2022-09-28T10:58:48.933Z,46.04
2022-09-28T11:01:34.745Z,44.86
2022-09-28T11:04:07.052Z,45.81
2022-09-28T11:06:39.660Z,45.01
2022-09-28T11:09:30.877Z,44.58
2022-09-28T11:12:06.142Z,43.71
2022-09-28T11:14:42.642Z,43.53
2022-09-28T11:17:39.041Z,43.77
2022-09-28T11:20:28.274Z,43.41
2022-09-28T11:23:19.322Z,43.22
2022-09-28T11:26:19.084Z,42.76
2022-09-28T11:28:51.321Z,42.52
2022-09-28T11:31:28.543Z,40.75
2022-09-28T11:34:14.325Z,40.62
2022-09-28T11:37:03.556Z,40.06
2022-09-28T11:39:51.696Z,40.46
2022-09-28T11:42:46.566Z,40.78
2022-09-28T11:45:35.763Z,41.01
2022-09-28T11:48:06.737Z,39.83
2022-09-28T11:50:44.918Z,39.51
2022-09-28T11:53:13.913Z,39.76
2022-09-28T11:55:46.007Z,40.53
2022-09-28T11:58:23.780Z,39.30
2022-09-28T12:00:56.655Z,39.20
2022-09-28T12:03:50.745Z,39.20
2022-09-28T12:06:22.918Z,38.81
2022-09-28T12:08:54.656Z,38.57
2022-09-28T12:11:46.133Z,38.52
2022-09-28T12:14:23.909Z,38.33
2022-09-28T12:17:07.976Z,39.04
2022-09-28T12:19:41.756Z,39.05
2022-09-28T12:22:18.840Z,38.17
2022-09-28T12:24:49.779Z,37.03
2022-09-28T12:27:23.382Z,37.20
2022-09-28T12:30:02.887Z,37.19
2022-09-28T12:32:47.075Z,37.50
2022-09-28T12:35:33.276Z,36.01
2022-09-28T12:38:18.755Z,34.74
2022-09-28T12:40:47.312Z,33.96
2022-09-28T12:43:17.871Z,33.92
2022-09-28T12:46:10.866Z,33.29
2022-09-28T12:49:04.207Z,33.06
2022-09-28T12:51:37.882Z,31.55
2022-09-28T12:54:34.748Z,31.84
2022-09-28T12:57:05.749Z,31.62
2022-09-28T12:59:53.943Z,30.80
2022-09-28T13:02:22.274Z,30.64
2022-09-28T13:04:51.002Z,30.12
2022-09-28T13:07:25.385Z,30.47
2022-09-28T13:10:16.959Z,29.78
2022-09-28T13:13:03.433Z,29.72
2022-09-28T13:15:45.289Z,29.95
2022-09-28T13:18:18.747Z,29.83
2022-09-28T13:21:06.686Z,29.15
2022-09-28T13:23:38.244Z,28.87
2022-09-28T13:26:15.325Z,28.48
2022-09-28T13:28:46.491Z,27.96
2022-09-28T13:31:19.683Z,27.63
2022-09-28T13:33:49.374Z,27.71
2022-09-28T13:36:33.123Z,27.49
2022-09-28T13:39:01.498Z,27.40
2022-09-28T13:41:38.272Z,27.69
2022-09-28T13:44:13.002Z,27.90
2022-09-28T13:46:41.690Z,28.02
2022-09-28T13:49:09.967Z,27.49
2022-09-28T13:51:58.624Z,27.41
2022-09-28T13:54:27.167Z,26.14
2022-09-28T13:56:58.252Z,26.35
2022-09-28T13:59:28.353Z,25.87
2022-09-28T14:02:06.795Z,26.34
2022-09-28T14:04:57.408Z,26.56
2022-09-28T14:07:34.964Z,26.54
2022-09-28T14:10:24.933Z,26.23
2022-09-28T14:12:54.620Z,26.70
2022-09-28T14:15:28.870Z,26.55
2022-09-28T14:18:14.121Z,26.34
2022-09-28T14:20:48.908Z,26.29
2022-09-28T14:23:40.440Z,25.92
2022-09-28T14:26:11.885Z,26.01
2022-09-28T14:28:50.607Z,26.38
2022-09-28T14:31:25.925Z,26.30
2022-09-28T14:33:57.210Z,26.19
2022-09-28T14:36:55.396Z,26.29
2022-09-28T14:39:47.177Z,26.19
2022-09-28T14:42:17.839Z,26.59
2022-09-28T14:45:07.299Z,26.49
2022-09-28T14:47:38.562Z,27.08
2022-09-28T14:50:26.536Z,27.09
2022-09-28T14:52:56.212Z,27.30
2022-09-28T14:55:28.685Z,27.82
2022-09-28T14:57:58.299Z,28.39
2022-09-28T15:00:30.648Z,28.36
2022-09-28T15:03:05.964Z,28.62
2022-09-28T15:05:47.386Z,28.67
2022-09-28T15:08:18.210Z,28.49
2022-09-28T15:10:47.847Z,28.73
2022-09-28T15:13:22.103Z,29.17
2022-09-28T15:15:52.045Z,29.71
2022-09-28T15:18:20.471Z,29.75
2022-09-28T15:20:50.247Z,30.24
2022-09-28T15:23:26.770Z,30.57
2022-09-28T15:25:55.744Z,30.96
2022-09-28T15:28:24.635Z,31.36
2022-09-28T15:30:59.733Z,31.98
2022-09-28T15:33:48.634Z,32.54
2022-09-28T15:36:29.183Z,34.44
2022-09-28T15:39:00.345Z,35.70
2022-09-28T15:41:29.135Z,37.05
2022-09-28T15:44:13.085Z,38.69
2022-09-28T15:46:48.151Z,39.40
2022-09-28T15:49:39.061Z,41.23
2022-09-28T15:52:22.683Z,42.14
2022-09-28T15:54:51.455Z,42.84
2022-09-28T15:57:33.055Z,43.48
2022-09-28T16:00:01.749Z,44.96
2022-09-28T16:02:57.174Z,46.01
2022-09-28T16:05:36.082Z,46.94
2022-09-28T16:08:05.280Z,46.70
2022-09-28T16:10:34.780Z,47.19
2022-09-28T16:13:14.595Z,48.14
2022-09-28T16:15:43.381Z,48.94
2022-09-28T16:18:54.783Z,50.38
2022-09-28T16:22:12.134Z,49.85
2022-09-28T16:25:20.296Z,51.22
2022-09-28T16:31:21.135Z,52.92
2022-09-28T16:33:49.695Z,52.56
2022-09-28T16:36:18.588Z,52.44
2022-09-28T16:38:47.869Z,52.68
2022-09-28T16:41:19.679Z,53.46
2022-09-28T16:43:48.644Z,54.38
2022-09-28T16:46:20.848Z,54.79
2022-09-28T16:49:29.232Z,54.94
2022-09-28T16:52:37.561Z,54.24
2022-09-28T16:55:36.204Z,55.83
2022-09-28T16:58:05.046Z,55.53
2022-09-28T17:00:33.926Z,56.61
2022-09-28T17:03:02.579Z,56.67
2022-09-28T17:05:31.078Z,56.43
2022-09-28T17:08:04.155Z,56.86
2022-09-28T17:13:41.465Z,56.14
2022-09-28T17:16:27.937Z,56.65
2022-09-28T17:19:18.346Z,55.62
2022-09-28T17:21:47.390Z,56.40
2022-09-28T17:24:15.770Z,56.29
2022-09-28T17:26:45.275Z,56.14
2022-09-28T17:29:14.883Z,56.47
2022-09-28T17:31:44.082Z,58.69
2022-09-28T17:34:14.045Z,59.03
2022-09-28T17:36:43.610Z,59.36
2022-09-28T17:39:16.147Z,59.57
2022-09-28T17:41:44.568Z,59.51
2022-09-28T17:44:16.606Z,58.63
2022-09-28T17:46:48.834Z,57.98
2022-09-28T17:49:18.004Z,58.60
2022-09-28T17:51:46.586Z,59.42
2022-09-28T17:54:17.221Z,59.55
2022-09-28T17:56:46.442Z,59.64
2022-09-28T17:59:16.952Z,60.58
2022-09-28T18:01:45.390Z,60.65
2022-09-28T18:04:33.338Z,61.21
2022-09-28T18:07:03.902Z,61.29
2022-09-28T18:09:32.076Z,61.49
2022-09-28T18:12:04.540Z,61.94
2022-09-28T18:14:33.441Z,62.37
2022-09-28T18:17:02.135Z,62.36
2022-09-28T18:19:32.310Z,61.26
2022-09-28T18:22:01.968Z,60.87
2022-09-28T18:24:32.778Z,61.88
2022-09-28T18:27:01.389Z,61.47
2022-09-28T18:29:33.070Z,61.44
2022-09-28T18:32:03.061Z,62.52
2022-09-28T18:34:31.451Z,64.74
2022-09-28T18:36:59.616Z,64.05
2022-09-28T18:39:28.202Z,64.46
2022-09-28T18:41:56.901Z,64.52
2022-09-28T18:44:25.166Z,64.38
2022-09-28T18:46:53.831Z,65.20
2022-09-28T18:49:22.442Z,66.67
2022-09-28T18:51:50.882Z,66.60
2022-09-28T18:54:19.272Z,65.54
2022-09-28T18:56:47.731Z,65.64
2022-09-28T18:59:16.164Z,66.14
2022-09-28T19:01:44.671Z,66.29
2022-09-28T19:04:13.699Z,66.13
2022-09-28T19:06:43.152Z,66.10
2022-09-28T19:09:12.298Z,66.96
2022-09-28T19:11:40.955Z,65.95
2022-09-28T19:14:11.218Z,65.67
2022-09-28T19:16:39.624Z,66.89
2022-09-28T19:19:09.349Z,68.18
2022-09-28T19:21:37.753Z,68.09
2022-09-28T19:24:06.313Z,68.08
2022-09-28T19:26:34.731Z,67.62
2022-09-28T19:29:03.586Z,67.22
2022-09-28T19:31:33.091Z,67.05
2022-09-28T19:34:01.810Z,66.99
2022-09-28T19:36:31.388Z,67.51
2022-09-28T19:39:03.490Z,67.47
2022-09-28T19:41:44.982Z,67.29
2022-09-28T19:44:24.914Z,66.61
2022-09-28T19:46:56.310Z,66.95
2022-09-28T19:49:25.748Z,66.75
2022-09-28T19:54:58.554Z,67.30
2022-09-28T19:57:28.710Z,66.23
2022-09-28T20:00:01.971Z,66.53
2022-09-28T20:02:35.351Z,67.30
2022-09-28T20:05:04.050Z,67.82
2022-09-28T20:07:33.663Z,66.77
2022-09-28T20:10:02.279Z,66.97
2022-09-28T20:12:30.734Z,67.69
2022-09-28T20:14:59.519Z,67.91
2022-09-28T20:17:28.108Z,67.03
2022-09-28T20:19:57.835Z,66.89
2022-09-28T20:22:25.992Z,67.01
2022-09-28T20:24:54.543Z,66.95
2022-09-28T20:27:26.379Z,66.20
2022-09-28T20:29:54.922Z,66.13
2022-09-28T20:32:23.300Z,67.97
2022-09-28T20:34:51.987Z,68.56
2022-09-28T20:37:20.573Z,68.20
2022-09-28T20:39:49.360Z,67.25
2022-09-28T20:42:17.739Z,66.87
2022-09-28T20:44:46.223Z,67.67
2022-09-28T20:47:14.813Z,68.51
2022-09-28T20:49:44.730Z,68.32
2022-09-28T20:52:13.107Z,67.66
2022-09-28T20:54:41.689Z,67.49
2022-09-28T20:57:20.414Z,67.52
2022-09-28T20:59:54.364Z,67.19
2022-09-28T21:02:23.540Z,67.75
2022-09-28T21:04:52.110Z,68.60
2022-09-28T21:07:20.383Z,68.36
2022-09-28T21:09:48.969Z,68.35
2022-09-28T21:12:17.662Z,67.97
2022-09-28T21:14:46.034Z,67.71
2022-09-28T21:17:15.235Z,67.65
2022-09-28T21:19:43.718Z,67.40
2022-09-28T21:22:11.995Z,68.13
2022-09-28T21:24:40.332Z,69.43
2022-09-28T21:27:09.165Z,69.09
2022-09-28T21:29:37.340Z,69.17
2022-09-28T21:32:06.231Z,69.99
2022-09-28T21:34:36.124Z,69.71
2022-09-28T21:37:04.423Z,70.87
2022-09-28T21:39:32.910Z,71.29
2022-09-28T21:42:01.490Z,71.19
2022-09-28T21:44:30.076Z,70.80
2022-09-28T21:46:58.561Z,70.97
2022-09-28T21:49:26.835Z,71.27
2022-09-28T21:51:55.384Z,70.40
2022-09-28T21:54:24.005Z,70.13
2022-09-28T21:56:52.998Z,69.83
2022-09-28T21:59:21.173Z,70.49
2022-09-28T22:01:49.825Z,70.67
2022-09-28T22:04:18.677Z,70.38
2022-09-28T22:06:47.033Z,69.60
2022-09-28T22:09:15.525Z,69.67
2022-09-28T22:11:44.201Z,69.80
2022-09-28T22:14:12.684Z,69.71
2022-09-28T22:16:41.478Z,69.18
2022-09-28T22:19:10.261Z,69.53
2022-09-28T22:21:39.280Z,69.86
2022-09-28T22:24:08.047Z,70.21
2022-09-28T22:26:37.245Z,69.82
2022-09-28T22:29:06.649Z,70.50
2022-09-28T22:31:36.428Z,71.11
2022-09-28T22:34:05.744Z,71.29
2022-09-28T22:36:34.579Z,71.47
2022-09-28T22:39:02.933Z,71.72
2022-09-28T22:41:32.651Z,71.11
2022-09-28T22:44:01.540Z,71.00
2022-09-28T22:46:32.401Z,70.86
2022-09-28T22:49:01.680Z,70.67
2022-09-28T22:51:30.977Z,70.72
2022-09-28T22:53:59.460Z,70.07
2022-09-28T22:56:28.556Z,69.45
2022-09-28T22:58:56.730Z,69.22
2022-09-28T23:01:29.877Z,68.90
2022-09-28T23:03:58.658Z,68.92
2022-09-28T23:06:29.266Z,68.95
2022-09-28T23:08:58.034Z,68.99
2022-09-28T23:11:27.232Z,69.03
2022-09-28T23:13:57.049Z,69.14
2022-09-28T23:16:27.087Z,69.03
2022-09-28T23:18:56.163Z,68.91
2022-09-28T23:21:25.750Z,68.61
2022-09-28T23:23:58.350Z,68.80
2022-09-28T23:26:28.368Z,68.68
2022-09-28T23:28:57.467Z,68.91
2022-09-28T23:31:32.324Z,69.14
2022-09-28T23:34:05.390Z,69.06
2022-09-28T23:36:34.297Z,68.95
2022-09-28T23:39:03.584Z,68.43
2022-09-28T23:41:32.266Z,68.68
2022-09-28T23:44:00.952Z,69.00
2022-09-28T23:46:29.587Z,70.32
2022-09-28T23:48:57.945Z,70.56
2022-09-28T23:51:26.298Z,70.55
2022-09-28T23:53:54.702Z,70.92
2022-09-28T23:56:23.108Z,70.13
2022-09-28T23:58:51.741Z,69.91
